sensor_id;sensor_type;location;lat;lon;timestamp;P1;durP1;ratioP1;P2;durP2;ratioP2
3667;SDS011;24099;47.102;15.440;2023-03-25T00:02:13;0.40;;;0.40;;
3667;SDS011;24099;47.102;15.440;2023-03-25T00:04:42;0.10;;;0.10;;
3667;SDS011;24099;47.102;15.440;2023-03-25T00:07:09;1.60;;;0.38;;
3667;SDS011;24099;47.102;15.440;2023-03-25T00:09:40;0.20;;;0.20;;
3667;SDS011;24099;47.102;15.440;2023-03-25T00:12:12;0.20;;;0.20;;
3667;SDS011;24099;47.102;15.440;2023-03-25T00:14:41;0.40;;;0.40;;
3667;SDS011;24099;47.102;15.440;2023-03-25T00:17:21;0.20;;;0.20;;
3667;SDS011;24099;47.102;15.440;2023-03-25T00:19:50;0.20;;;0.20;;
3667;SDS011;24099;47.102;15.440;2023-03-25T00:22:20;0.60;;;0.50;;
3667;SDS011;24099;47.102;15.440;2023-03-25T00:24:48;0.73;;;0.38;;
3667;SDS011;24099;47.102;15.440;2023-03-25T00:27:17;0.20;;;0.20;;
3667;SDS011;24099;47.102;15.440;2023-03-25T00:29:45;0.10;;;0.10;;
3667;SDS011;24099;47.102;15.440;2023-03-25T00:32:14;0.20;;;0.20;;
3667;SDS011;24099;47.102;15.440;2023-03-25T00:34:45;0.20;;;0.20;;
3667;SDS011;24099;47.102;15.440;2023-03-25T00:37:13;0.25;;;0.25;;
3667;SDS011;24099;47.102;15.440;2023-03-25T00:39:43;0.40;;;0.40;;
3667;SDS011;24099;47.102;15.440;2023-03-25T00:42:14;0.20;;;0.20;;
3667;SDS011;24099;47.102;15.440;2023-03-25T00:44:43;0.10;;;0.10;;
3667;SDS011;24099;47.102;15.440;2023-03-25T00:47:14;0.28;;;0.28;;
3667;SDS011;24099;47.102;15.440;2023-03-25T00:49:43;0.20;;;0.20;;
3667;SDS011;24099;47.102;15.440;2023-03-25T00:52:10;0.65;;;0.20;;
3667;SDS011;24099;47.102;15.440;2023-03-25T00:54:40;0.28;;;0.20;;
3667;SDS011;24099;47.102;15.440;2023-03-25T00:57:08;0.30;;;0.30;;
3667;SDS011;24099;47.102;15.440;2023-03-25T00:59:39;0.10;;;0.10;;
3667;SDS011;24099;47.102;15.440;2023-03-25T01:02:08;0.22;;;0.22;;
3667;SDS011;24099;47.102;15.440;2023-03-25T01:04:36;0.20;;;0.20;;
3667;SDS011;24099;47.102;15.440;2023-03-25T01:07:05;0.10;;;0.10;;
3667;SDS011;24099;47.102;15.440;2023-03-25T01:09:35;0.47;;;0.45;;
3667;SDS011;24099;47.102;15.440;2023-03-25T01:12:05;0.90;;;0.40;;
3667;SDS011;24099;47.102;15.440;2023-03-25T01:14:33;0.17;;;0.17;;
3667;SDS011;24099;47.102;15.440;2023-03-25T01:17:01;0.20;;;0.20;;
3667;SDS011;24099;47.102;15.440;2023-03-25T01:19:33;0.30;;;0.30;;
3667;SDS011;24099;47.102;15.440;2023-03-25T01:22:00;3.47;;;0.32;;
3667;SDS011;24099;47.102;15.440;2023-03-25T01:24:28;0.20;;;0.20;;
3667;SDS011;24099;47.102;15.440;2023-03-25T01:26:56;1.52;;;0.45;;
3667;SDS011;24099;47.102;15.440;2023-03-25T01:29:26;0.40;;;0.40;;
3667;SDS011;24099;47.102;15.440;2023-03-25T01:31:56;0.20;;;0.20;;
3667;SDS011;24099;47.102;15.440;2023-03-25T01:34:24;0.30;;;0.30;;
3667;SDS011;24099;47.102;15.440;2023-03-25T01:36:59;0.20;;;0.20;;
3667;SDS011;24099;47.102;15.440;2023-03-25T01:39:27;0.20;;;0.20;;
3667;SDS011;24099;47.102;15.440;2023-03-25T01:41:55;0.17;;;0.17;;
3667;SDS011;24099;47.102;15.440;2023-03-25T01:47:28;0.20;;;0.20;;
3667;SDS011;24099;47.102;15.440;2023-03-25T01:49:57;0.40;;;0.38;;
3667;SDS011;24099;47.102;15.440;2023-03-25T01:52:27;0.20;;;0.20;;
3667;SDS011;24099;47.102;15.440;2023-03-25T01:54:56;0.57;;;0.30;;
3667;SDS011;24099;47.102;15.440;2023-03-25T01:57:25;0.30;;;0.30;;
3667;SDS011;24099;47.102;15.440;2023-03-25T02:00:01;0.30;;;0.30;;
3667;SDS011;24099;47.102;15.440;2023-03-25T02:02:37;0.20;;;0.20;;
3667;SDS011;24099;47.102;15.440;2023-03-25T02:05:07;1.48;;;0.28;;
3667;SDS011;24099;47.102;15.440;2023-03-25T02:07:43;0.40;;;0.32;;
3667;SDS011;24099;47.102;15.440;2023-03-25T02:10:14;0.40;;;0.30;;
3667;SDS011;24099;47.102;15.440;2023-03-25T02:12:44;0.52;;;0.30;;
3667;SDS011;24099;47.102;15.440;2023-03-25T02:15:21;0.13;;;0.13;;
3667;SDS011;24099;47.102;15.440;2023-03-25T02:17:56;0.25;;;0.25;;
3667;SDS011;24099;47.102;15.440;2023-03-25T02:20:36;0.22;;;0.22;;
3667;SDS011;24099;47.102;15.440;2023-03-25T02:23:35;0.30;;;0.30;;
3667;SDS011;24099;47.102;15.440;2023-03-25T02:26:26;0.30;;;0.30;;
3667;SDS011;24099;47.102;15.440;2023-03-25T02:29:24;0.30;;;0.30;;
3667;SDS011;24099;47.102;15.440;2023-03-25T02:32:08;0.20;;;0.20;;
3667;SDS011;24099;47.102;15.440;2023-03-25T02:34:56;0.63;;;0.40;;
3667;SDS011;24099;47.102;15.440;2023-03-25T02:37:54;0.52;;;0.40;;
3667;SDS011;24099;47.102;15.440;2023-03-25T02:40:41;0.28;;;0.28;;
3667;SDS011;24099;47.102;15.440;2023-03-25T02:43:22;0.30;;;0.30;;
3667;SDS011;24099;47.102;15.440;2023-03-25T02:45:58;0.20;;;0.20;;
3667;SDS011;24099;47.102;15.440;2023-03-25T02:48:31;0.52;;;0.30;;
3667;SDS011;24099;47.102;15.440;2023-03-25T02:51:04;0.40;;;0.30;;
3667;SDS011;24099;47.102;15.440;2023-03-25T02:53:39;0.38;;;0.38;;
3667;SDS011;24099;47.102;15.440;2023-03-25T02:56:13;0.35;;;0.35;;
3667;SDS011;24099;47.102;15.440;2023-03-25T02:58:47;1.02;;;0.32;;
3667;SDS011;24099;47.102;15.440;2023-03-25T03:01:20;0.35;;;0.35;;
3667;SDS011;24099;47.102;15.440;2023-03-25T03:03:52;1.35;;;0.45;;
3667;SDS011;24099;47.102;15.440;2023-03-25T03:06:20;0.30;;;0.30;;
3667;SDS011;24099;47.102;15.440;2023-03-25T03:08:57;0.65;;;0.30;;
3667;SDS011;24099;47.102;15.440;2023-03-25T03:11:45;0.63;;;0.30;;
3667;SDS011;24099;47.102;15.440;2023-03-25T03:14:27;0.73;;;0.40;;
3667;SDS011;24099;47.102;15.440;2023-03-25T03:17:05;0.45;;;0.32;;
3667;SDS011;24099;47.102;15.440;2023-03-25T03:19:39;0.20;;;0.20;;
3667;SDS011;24099;47.102;15.440;2023-03-25T03:22:13;0.30;;;0.30;;
3667;SDS011;24099;47.102;15.440;2023-03-25T03:24:53;0.20;;;0.20;;
3667;SDS011;24099;47.102;15.440;2023-03-25T03:27:27;0.25;;;0.25;;
3667;SDS011;24099;47.102;15.440;2023-03-25T03:30:03;0.40;;;0.40;;
3667;SDS011;24099;47.102;15.440;2023-03-25T03:32:36;0.55;;;0.35;;
3667;SDS011;24099;47.102;15.440;2023-03-25T03:35:12;0.20;;;0.20;;
3667;SDS011;24099;47.102;15.440;2023-03-25T03:37:48;0.25;;;0.25;;
3667;SDS011;24099;47.102;15.440;2023-03-25T03:40:23;0.50;;;0.50;;
3667;SDS011;24099;47.102;15.440;2023-03-25T03:42:54;0.32;;;0.32;;
3667;SDS011;24099;47.102;15.440;2023-03-25T03:45:25;0.82;;;0.40;;
3667;SDS011;24099;47.102;15.440;2023-03-25T03:47:58;0.47;;;0.20;;
3667;SDS011;24099;47.102;15.440;2023-03-25T03:50:29;0.68;;;0.25;;
3667;SDS011;24099;47.102;15.440;2023-03-25T03:53:05;0.50;;;0.23;;
3667;SDS011;24099;47.102;15.440;2023-03-25T03:55:43;11.73;;;1.55;;
3667;SDS011;24099;47.102;15.440;2023-03-25T03:58:17;0.40;;;0.40;;
3667;SDS011;24099;47.102;15.440;2023-03-25T04:00:51;0.28;;;0.28;;
3667;SDS011;24099;47.102;15.440;2023-03-25T04:03:31;0.30;;;0.25;;
3667;SDS011;24099;47.102;15.440;2023-03-25T04:06:06;0.30;;;0.30;;
3667;SDS011;24099;47.102;15.440;2023-03-25T04:08:40;0.25;;;0.25;;
3667;SDS011;24099;47.102;15.440;2023-03-25T04:11:18;0.30;;;0.30;;
3667;SDS011;24099;47.102;15.440;2023-03-25T04:13:51;0.63;;;0.25;;
3667;SDS011;24099;47.102;15.440;2023-03-25T04:16:22;0.50;;;0.50;;
3667;SDS011;24099;47.102;15.440;2023-03-25T04:18:50;0.30;;;0.20;;
3667;SDS011;24099;47.102;15.440;2023-03-25T04:21:19;2.42;;;0.30;;
3667;SDS011;24099;47.102;15.440;2023-03-25T04:23:47;1.17;;;0.20;;
3667;SDS011;24099;47.102;15.440;2023-03-25T04:26:16;0.20;;;0.20;;
3667;SDS011;24099;47.102;15.440;2023-03-25T04:28:46;0.30;;;0.30;;
3667;SDS011;24099;47.102;15.440;2023-03-25T04:31:14;0.43;;;0.35;;
3667;SDS011;24099;47.102;15.440;2023-03-25T04:33:45;2.85;;;0.50;;
3667;SDS011;24099;47.102;15.440;2023-03-25T04:36:14;0.30;;;0.30;;
3667;SDS011;24099;47.102;15.440;2023-03-25T04:38:42;0.28;;;0.28;;
3667;SDS011;24099;47.102;15.440;2023-03-25T04:41:12;0.40;;;0.40;;
3667;SDS011;24099;47.102;15.440;2023-03-25T04:43:46;1.85;;;0.22;;
3667;SDS011;24099;47.102;15.440;2023-03-25T04:46:14;0.30;;;0.30;;
3667;SDS011;24099;47.102;15.440;2023-03-25T04:48:44;0.45;;;0.28;;
3667;SDS011;24099;47.102;15.440;2023-03-25T04:51:15;0.20;;;0.20;;
3667;SDS011;24099;47.102;15.440;2023-03-25T04:53:46;0.20;;;0.20;;
3667;SDS011;24099;47.102;15.440;2023-03-25T04:56:15;0.30;;;0.30;;
3667;SDS011;24099;47.102;15.440;2023-03-25T04:58:43;0.30;;;0.30;;
3667;SDS011;24099;47.102;15.440;2023-03-25T05:01:19;0.30;;;0.30;;
3667;SDS011;24099;47.102;15.440;2023-03-25T05:03:57;0.60;;;0.47;;
3667;SDS011;24099;47.102;15.440;2023-03-25T05:06:31;0.30;;;0.30;;
3667;SDS011;24099;47.102;15.440;2023-03-25T05:09:01;0.13;;;0.13;;
3667;SDS011;24099;47.102;15.440;2023-03-25T05:11:31;0.28;;;0.28;;
3667;SDS011;24099;47.102;15.440;2023-03-25T05:14:02;0.20;;;0.20;;
3667;SDS011;24099;47.102;15.440;2023-03-25T05:16:30;0.28;;;0.28;;
3667;SDS011;24099;47.102;15.440;2023-03-25T05:19:05;0.35;;;0.35;;
3667;SDS011;24099;47.102;15.440;2023-03-25T05:21:37;0.28;;;0.28;;
3667;SDS011;24099;47.102;15.440;2023-03-25T05:24:07;1.55;;;0.75;;
3667;SDS011;24099;47.102;15.440;2023-03-25T05:26:37;0.30;;;0.30;;
3667;SDS011;24099;47.102;15.440;2023-03-25T05:29:09;0.15;;;0.15;;
3667;SDS011;24099;47.102;15.440;2023-03-25T05:31:39;0.20;;;0.20;;
3667;SDS011;24099;47.102;15.440;2023-03-25T05:34:06;0.90;;;0.50;;
3667;SDS011;24099;47.102;15.440;2023-03-25T05:36:35;0.20;;;0.20;;
3667;SDS011;24099;47.102;15.440;2023-03-25T05:39:03;0.15;;;0.15;;
3667;SDS011;24099;47.102;15.440;2023-03-25T05:41:35;0.30;;;0.30;;
3667;SDS011;24099;47.102;15.440;2023-03-25T05:44:04;0.43;;;0.20;;
3667;SDS011;24099;47.102;15.440;2023-03-25T05:46:40;0.20;;;0.20;;
3667;SDS011;24099;47.102;15.440;2023-03-25T05:49:09;0.20;;;0.20;;
3667;SDS011;24099;47.102;15.440;2023-03-25T05:51:37;0.40;;;0.40;;
3667;SDS011;24099;47.102;15.440;2023-03-25T05:54:06;0.20;;;0.20;;
3667;SDS011;24099;47.102;15.440;2023-03-25T05:56:36;0.22;;;0.22;;
3667;SDS011;24099;47.102;15.440;2023-03-25T05:59:05;0.20;;;0.20;;
3667;SDS011;24099;47.102;15.440;2023-03-25T06:01:34;3.92;;;0.50;;
3667;SDS011;24099;47.102;15.440;2023-03-25T06:04:04;0.30;;;0.30;;
3667;SDS011;24099;47.102;15.440;2023-03-25T06:06:34;0.77;;;0.50;;
3667;SDS011;24099;47.102;15.440;2023-03-25T06:09:02;0.50;;;0.50;;
3667;SDS011;24099;47.102;15.440;2023-03-25T06:11:30;1.05;;;0.70;;
3667;SDS011;24099;47.102;15.440;2023-03-25T06:14:06;0.50;;;0.50;;
3667;SDS011;24099;47.102;15.440;2023-03-25T06:16:34;2.13;;;0.32;;
3667;SDS011;24099;47.102;15.440;2023-03-25T06:19:07;0.40;;;0.40;;
3667;SDS011;24099;47.102;15.440;2023-03-25T06:21:36;0.73;;;0.45;;
3667;SDS011;24099;47.102;15.440;2023-03-25T06:24:06;1.08;;;0.40;;
3667;SDS011;24099;47.102;15.440;2023-03-25T06:26:39;0.63;;;0.47;;
3667;SDS011;24099;47.102;15.440;2023-03-25T06:29:07;0.60;;;0.50;;
3667;SDS011;24099;47.102;15.440;2023-03-25T06:31:36;0.38;;;0.38;;
3667;SDS011;24099;47.102;15.440;2023-03-25T06:34:03;0.55;;;0.50;;
3667;SDS011;24099;47.102;15.440;2023-03-25T06:36:33;0.45;;;0.45;;
3667;SDS011;24099;47.102;15.440;2023-03-25T06:39:01;2.33;;;0.43;;
3667;SDS011;24099;47.102;15.440;2023-03-25T06:41:32;0.65;;;0.40;;
3667;SDS011;24099;47.102;15.440;2023-03-25T06:44:12;0.30;;;0.30;;
3667;SDS011;24099;47.102;15.440;2023-03-25T06:47:01;0.93;;;0.47;;
3667;SDS011;24099;47.102;15.440;2023-03-25T06:49:40;0.55;;;0.43;;
3667;SDS011;24099;47.102;15.440;2023-03-25T06:52:10;0.40;;;0.40;;
3667;SDS011;24099;47.102;15.440;2023-03-25T06:54:38;0.47;;;0.47;;
3667;SDS011;24099;47.102;15.440;2023-03-25T06:57:06;0.40;;;0.40;;
3667;SDS011;24099;47.102;15.440;2023-03-25T06:59:33;0.93;;;0.45;;
3667;SDS011;24099;47.102;15.440;2023-03-25T07:02:01;0.50;;;0.50;;
3667;SDS011;24099;47.102;15.440;2023-03-25T07:04:29;0.90;;;0.60;;
3667;SDS011;24099;47.102;15.440;2023-03-25T07:06:57;0.68;;;0.40;;
3667;SDS011;24099;47.102;15.440;2023-03-25T07:09:29;0.63;;;0.63;;
3667;SDS011;24099;47.102;15.440;2023-03-25T07:11:57;0.50;;;0.50;;
3667;SDS011;24099;47.102;15.440;2023-03-25T07:14:28;0.60;;;0.60;;
3667;SDS011;24099;47.102;15.440;2023-03-25T07:16:56;0.50;;;0.50;;
3667;SDS011;24099;47.102;15.440;2023-03-25T07:19:24;0.57;;;0.57;;
3667;SDS011;24099;47.102;15.440;2023-03-25T07:21:52;0.60;;;0.60;;
3667;SDS011;24099;47.102;15.440;2023-03-25T07:24:23;0.50;;;0.50;;
3667;SDS011;24099;47.102;15.440;2023-03-25T07:26:52;0.60;;;0.60;;
3667;SDS011;24099;47.102;15.440;2023-03-25T07:29:24;0.65;;;0.65;;
3667;SDS011;24099;47.102;15.440;2023-03-25T07:31:54;0.70;;;0.63;;
3667;SDS011;24099;47.102;15.440;2023-03-25T07:34:23;2.92;;;0.63;;
3667;SDS011;24099;47.102;15.440;2023-03-25T07:36:51;0.55;;;0.52;;
3667;SDS011;24099;47.102;15.440;2023-03-25T07:39:18;0.65;;;0.65;;
3667;SDS011;24099;47.102;15.440;2023-03-25T07:41:50;0.57;;;0.57;;
3667;SDS011;24099;47.102;15.440;2023-03-25T07:44:48;0.65;;;0.60;;
3667;SDS011;24099;47.102;15.440;2023-03-25T07:47:18;1.50;;;0.93;;
3667;SDS011;24099;47.102;15.440;2023-03-25T07:49:46;2.28;;;0.90;;
3667;SDS011;24099;47.102;15.440;2023-03-25T07:52:17;1.60;;;1.13;;
3667;SDS011;24099;47.102;15.440;2023-03-25T07:54:47;1.30;;;1.20;;
3667;SDS011;24099;47.102;15.440;2023-03-25T07:57:16;1.00;;;0.90;;
3667;SDS011;24099;47.102;15.440;2023-03-25T07:59:44;6.97;;;1.17;;
3667;SDS011;24099;47.102;15.440;2023-03-25T08:02:12;1.50;;;0.98;;
3667;SDS011;24099;47.102;15.440;2023-03-25T08:04:40;1.65;;;1.15;;
3667;SDS011;24099;47.102;15.440;2023-03-25T08:07:08;0.68;;;0.68;;
3667;SDS011;24099;47.102;15.440;2023-03-25T08:09:36;0.60;;;0.60;;
3667;SDS011;24099;47.102;15.440;2023-03-25T08:12:04;1.25;;;0.80;;
3667;SDS011;24099;47.102;15.440;2023-03-25T08:14:36;1.52;;;1.10;;
3667;SDS011;24099;47.102;15.440;2023-03-25T08:17:03;1.13;;;1.02;;
3667;SDS011;24099;47.102;15.440;2023-03-25T08:19:33;1.75;;;1.20;;
3667;SDS011;24099;47.102;15.440;2023-03-25T08:22:40;0.77;;;0.77;;
3667;SDS011;24099;47.102;15.440;2023-03-25T08:25:11;5.45;;;1.75;;
3667;SDS011;24099;47.102;15.440;2023-03-25T08:27:40;4.57;;;0.93;;
3667;SDS011;24099;47.102;15.440;2023-03-25T08:30:10;1.38;;;0.65;;
3667;SDS011;24099;47.102;15.440;2023-03-25T08:32:38;1.42;;;1.00;;
3667;SDS011;24099;47.102;15.440;2023-03-25T08:35:10;0.70;;;0.70;;
3667;SDS011;24099;47.102;15.440;2023-03-25T08:37:41;0.80;;;0.80;;
3667;SDS011;24099;47.102;15.440;2023-03-25T08:40:09;0.80;;;0.80;;
3667;SDS011;24099;47.102;15.440;2023-03-25T08:42:37;0.68;;;0.68;;
3667;SDS011;24099;47.102;15.440;2023-03-25T08:45:15;3.78;;;0.95;;
3667;SDS011;24099;47.102;15.440;2023-03-25T08:47:43;1.27;;;0.95;;
3667;SDS011;24099;47.102;15.440;2023-03-25T08:50:12;0.75;;;0.75;;
3667;SDS011;24099;47.102;15.440;2023-03-25T08:52:40;0.95;;;0.90;;
3667;SDS011;24099;47.102;15.440;2023-03-25T08:55:08;1.98;;;1.20;;
3667;SDS011;24099;47.102;15.440;2023-03-25T08:57:37;0.82;;;0.82;;
3667;SDS011;24099;47.102;15.440;2023-03-25T09:00:07;0.98;;;0.90;;
3667;SDS011;24099;47.102;15.440;2023-03-25T09:02:40;1.00;;;0.90;;
3667;SDS011;24099;47.102;15.440;2023-03-25T09:05:08;1.77;;;1.20;;
3667;SDS011;24099;47.102;15.440;2023-03-25T09:07:38;1.13;;;1.02;;
3667;SDS011;24099;47.102;15.440;2023-03-25T09:10:06;0.77;;;0.77;;
3667;SDS011;24099;47.102;15.440;2023-03-25T09:12:37;1.65;;;1.13;;
3667;SDS011;24099;47.102;15.440;2023-03-25T09:15:07;0.68;;;0.55;;
3667;SDS011;24099;47.102;15.440;2023-03-25T09:17:37;0.60;;;0.60;;
3667;SDS011;24099;47.102;15.440;2023-03-25T09:20:07;0.88;;;0.88;;
3667;SDS011;24099;47.102;15.440;2023-03-25T09:22:35;0.77;;;0.77;;
3667;SDS011;24099;47.102;15.440;2023-03-25T09:25:04;0.98;;;0.82;;
3667;SDS011;24099;47.102;15.440;2023-03-25T09:27:33;0.63;;;0.63;;
3667;SDS011;24099;47.102;15.440;2023-03-25T09:30:00;0.50;;;0.50;;
3667;SDS011;24099;47.102;15.440;2023-03-25T09:32:31;0.40;;;0.40;;
3667;SDS011;24099;47.102;15.440;2023-03-25T09:35:02;0.40;;;0.40;;
3667;SDS011;24099;47.102;15.440;2023-03-25T09:37:31;0.77;;;0.35;;
3667;SDS011;24099;47.102;15.440;2023-03-25T09:39:58;1.75;;;0.63;;
3667;SDS011;24099;47.102;15.440;2023-03-25T09:42:33;0.73;;;0.70;;
3667;SDS011;24099;47.102;15.440;2023-03-25T09:45:13;1.25;;;0.40;;
3667;SDS011;24099;47.102;15.440;2023-03-25T09:48:03;0.63;;;0.40;;
3667;SDS011;24099;47.102;15.440;2023-03-25T09:50:43;0.80;;;0.60;;
3667;SDS011;24099;47.102;15.440;2023-03-25T09:53:15;0.43;;;0.43;;
3667;SDS011;24099;47.102;15.440;2023-03-25T09:55:52;0.32;;;0.32;;
3667;SDS011;24099;47.102;15.440;2023-03-25T09:58:25;3.13;;;0.40;;
3667;SDS011;24099;47.102;15.440;2023-03-25T10:01:02;1.05;;;0.60;;
3667;SDS011;24099;47.102;15.440;2023-03-25T10:03:58;1.05;;;0.60;;
3667;SDS011;24099;47.102;15.440;2023-03-25T10:06:43;0.60;;;0.50;;
3667;SDS011;24099;47.102;15.440;2023-03-25T10:09:22;0.30;;;0.30;;
3667;SDS011;24099;47.102;15.440;2023-03-25T10:12:01;2.33;;;0.38;;
3667;SDS011;24099;47.102;15.440;2023-03-25T10:14:47;3.13;;;0.50;;
3667;SDS011;24099;47.102;15.440;2023-03-25T10:17:28;1.75;;;0.50;;
3667;SDS011;24099;47.102;15.440;2023-03-25T10:20:05;0.45;;;0.45;;
3667;SDS011;24099;47.102;15.440;2023-03-25T10:22:40;0.32;;;0.32;;
3667;SDS011;24099;47.102;15.440;2023-03-25T10:25:31;1.23;;;0.45;;
3667;SDS011;24099;47.102;15.440;2023-03-25T10:28:08;0.52;;;0.50;;
3667;SDS011;24099;47.102;15.440;2023-03-25T10:30:45;0.57;;;0.43;;
3667;SDS011;24099;47.102;15.440;2023-03-25T10:33:15;0.47;;;0.47;;
3667;SDS011;24099;47.102;15.440;2023-03-25T10:35:53;0.52;;;0.20;;
3667;SDS011;24099;47.102;15.440;2023-03-25T10:38:31;0.68;;;0.47;;
3667;SDS011;24099;47.102;15.440;2023-03-25T10:41:06;0.85;;;0.68;;
3667;SDS011;24099;47.102;15.440;2023-03-25T10:43:42;1.27;;;0.50;;
3667;SDS011;24099;47.102;15.440;2023-03-25T10:46:12;0.52;;;0.40;;
3667;SDS011;24099;47.102;15.440;2023-03-25T10:48:48;0.50;;;0.50;;
3667;SDS011;24099;47.102;15.440;2023-03-25T10:51:17;0.43;;;0.43;;
3667;SDS011;24099;47.102;15.440;2023-03-25T10:53:53;0.40;;;0.32;;
3667;SDS011;24099;47.102;15.440;2023-03-25T10:56:23;0.82;;;0.30;;
3667;SDS011;24099;47.102;15.440;2023-03-25T10:58:56;0.50;;;0.50;;
3667;SDS011;24099;47.102;15.440;2023-03-25T11:01:41;2.28;;;0.30;;
3667;SDS011;24099;47.102;15.440;2023-03-25T11:04:10;0.90;;;0.40;;
3667;SDS011;24099;47.102;15.440;2023-03-25T11:06:50;2.90;;;0.70;;
3667;SDS011;24099;47.102;15.440;2023-03-25T11:09:25;0.25;;;0.25;;
3667;SDS011;24099;47.102;15.440;2023-03-25T11:11:58;0.22;;;0.22;;
3667;SDS011;24099;47.102;15.440;2023-03-25T11:14:30;0.20;;;0.20;;
3667;SDS011;24099;47.102;15.440;2023-03-25T11:17:06;1.65;;;0.73;;
3667;SDS011;24099;47.102;15.440;2023-03-25T11:19:41;0.20;;;0.20;;
3667;SDS011;24099;47.102;15.440;2023-03-25T11:22:18;0.30;;;0.28;;
3667;SDS011;24099;47.102;15.440;2023-03-25T11:24:57;0.25;;;0.25;;
3667;SDS011;24099;47.102;15.440;2023-03-25T11:27:29;0.40;;;0.40;;
3667;SDS011;24099;47.102;15.440;2023-03-25T11:30:13;0.30;;;0.30;;
3667;SDS011;24099;47.102;15.440;2023-03-25T11:32:43;1.90;;;0.60;;
3667;SDS011;24099;47.102;15.440;2023-03-25T11:35:24;1.48;;;0.65;;
3667;SDS011;24099;47.102;15.440;2023-03-25T11:38:00;1.13;;;0.50;;
3667;SDS011;24099;47.102;15.440;2023-03-25T11:40:41;0.70;;;0.65;;
3667;SDS011;24099;47.102;15.440;2023-03-25T11:43:27;2.20;;;0.52;;
3667;SDS011;24099;47.102;15.440;2023-03-25T11:46:05;1.40;;;0.60;;
3667;SDS011;24099;47.102;15.440;2023-03-25T11:48:35;0.30;;;0.30;;
3667;SDS011;24099;47.102;15.440;2023-03-25T11:51:06;0.75;;;0.40;;
3667;SDS011;24099;47.102;15.440;2023-03-25T11:53:41;0.88;;;0.45;;
3667;SDS011;24099;47.102;15.440;2023-03-25T11:56:15;1.08;;;0.25;;
3667;SDS011;24099;47.102;15.440;2023-03-25T11:58:46;0.40;;;0.40;;
3667;SDS011;24099;47.102;15.440;2023-03-25T12:01:19;1.67;;;0.40;;
3667;SDS011;24099;47.102;15.440;2023-03-25T12:04:11;0.50;;;0.50;;
3667;SDS011;24099;47.102;15.440;2023-03-25T12:06:55;0.40;;;0.40;;
3667;SDS011;24099;47.102;15.440;2023-03-25T12:09:25;0.32;;;0.32;;
3667;SDS011;24099;47.102;15.440;2023-03-25T12:11:59;0.57;;;0.40;;
3667;SDS011;24099;47.102;15.440;2023-03-25T12:14:43;0.35;;;0.35;;
3667;SDS011;24099;47.102;15.440;2023-03-25T12:17:25;4.18;;;1.35;;
3667;SDS011;24099;47.102;15.440;2023-03-25T12:20:07;1.50;;;0.80;;
3667;SDS011;24099;47.102;15.440;2023-03-25T12:22:47;2.03;;;0.98;;
3667;SDS011;24099;47.102;15.440;2023-03-25T12:25:25;0.30;;;0.30;;
3667;SDS011;24099;47.102;15.440;2023-03-25T12:28:16;0.50;;;0.35;;
3667;SDS011;24099;47.102;15.440;2023-03-25T12:31:07;0.50;;;0.50;;
3667;SDS011;24099;47.102;15.440;2023-03-25T12:33:49;0.47;;;0.38;;
3667;SDS011;24099;47.102;15.440;2023-03-25T12:36:33;1.98;;;0.20;;
3667;SDS011;24099;47.102;15.440;2023-03-25T12:39:16;0.40;;;0.40;;
3667;SDS011;24099;47.102;15.440;2023-03-25T12:42:06;0.30;;;0.30;;
3667;SDS011;24099;47.102;15.440;2023-03-25T12:44:53;0.30;;;0.30;;
3667;SDS011;24099;47.102;15.440;2023-03-25T12:47:32;0.30;;;0.22;;
3667;SDS011;24099;47.102;15.440;2023-03-25T12:52:55;0.75;;;0.45;;
3667;SDS011;24099;47.102;15.440;2023-03-25T12:55:42;0.20;;;0.20;;
3667;SDS011;24099;47.102;15.440;2023-03-25T13:01:35;2.83;;;0.35;;
3667;SDS011;24099;47.102;15.440;2023-03-25T13:04:18;0.20;;;0.20;;
3667;SDS011;24099;47.102;15.440;2023-03-25T13:07:02;0.30;;;0.30;;
3667;SDS011;24099;47.102;15.440;2023-03-25T13:09:34;0.90;;;0.20;;
3667;SDS011;24099;47.102;15.440;2023-03-25T13:12:27;0.85;;;0.30;;
3667;SDS011;24099;47.102;15.440;2023-03-25T13:15:00;0.47;;;0.32;;
3667;SDS011;24099;47.102;15.440;2023-03-25T13:17:42;1.92;;;0.30;;
3667;SDS011;24099;47.102;15.440;2023-03-25T13:20:13;0.80;;;0.35;;
3667;SDS011;24099;47.102;15.440;2023-03-25T13:22:45;2.45;;;0.65;;
3667;SDS011;24099;47.102;15.440;2023-03-25T13:25:21;1.42;;;0.38;;
3667;SDS011;24099;47.102;15.440;2023-03-25T13:27:53;0.30;;;0.30;;
3667;SDS011;24099;47.102;15.440;2023-03-25T13:30:27;0.60;;;0.35;;
3667;SDS011;24099;47.102;15.440;2023-03-25T13:33:00;1.73;;;0.45;;
3667;SDS011;24099;47.102;15.440;2023-03-25T13:35:36;0.82;;;0.52;;
3667;SDS011;24099;47.102;15.440;2023-03-25T13:38:11;1.70;;;0.25;;
3667;SDS011;24099;47.102;15.440;2023-03-25T13:41:06;0.45;;;0.45;;
3667;SDS011;24099;47.102;15.440;2023-03-25T13:43:41;0.35;;;0.35;;
3667;SDS011;24099;47.102;15.440;2023-03-25T13:46:18;1.20;;;0.40;;
3667;SDS011;24099;47.102;15.440;2023-03-25T13:49:05;0.22;;;0.20;;
3667;SDS011;24099;47.102;15.440;2023-03-25T13:51:42;0.28;;;0.28;;
3667;SDS011;24099;47.102;15.440;2023-03-25T13:54:13;0.30;;;0.30;;
3667;SDS011;24099;47.102;15.440;2023-03-25T13:56:56;0.32;;;0.30;;
3667;SDS011;24099;47.102;15.440;2023-03-25T14:02:46;1.02;;;0.35;;
3667;SDS011;24099;47.102;15.440;2023-03-25T14:05:49;0.30;;;0.30;;
3667;SDS011;24099;47.102;15.440;2023-03-25T14:08:46;2.90;;;0.30;;
3667;SDS011;24099;47.102;15.440;2023-03-25T14:11:34;0.57;;;0.28;;
3667;SDS011;24099;47.102;15.440;2023-03-25T14:14:08;0.57;;;0.40;;
3667;SDS011;24099;47.102;15.440;2023-03-25T14:16:53;2.30;;;0.20;;
3667;SDS011;24099;47.102;15.440;2023-03-25T14:19:25;0.43;;;0.32;;
3667;SDS011;24099;47.102;15.440;2023-03-25T14:22:05;0.22;;;0.22;;
3667;SDS011;24099;47.102;15.440;2023-03-25T14:24:38;0.68;;;0.30;;
3667;SDS011;24099;47.102;15.440;2023-03-25T14:27:11;0.55;;;0.40;;
3667;SDS011;24099;47.102;15.440;2023-03-25T14:29:45;0.30;;;0.30;;
3667;SDS011;24099;47.102;15.440;2023-03-25T14:32:25;1.55;;;0.30;;
3667;SDS011;24099;47.102;15.440;2023-03-25T14:38:19;0.95;;;0.30;;
3667;SDS011;24099;47.102;15.440;2023-03-25T14:41:13;0.85;;;0.32;;
3667;SDS011;24099;47.102;15.440;2023-03-25T14:43:42;0.70;;;0.50;;
3667;SDS011;24099;47.102;15.440;2023-03-25T14:46:20;0.20;;;0.20;;
3667;SDS011;24099;47.102;15.440;2023-03-25T14:48:50;0.25;;;0.25;;
3667;SDS011;24099;47.102;15.440;2023-03-25T14:51:43;0.80;;;0.30;;
3667;SDS011;24099;47.102;15.440;2023-03-25T14:54:20;0.30;;;0.30;;
3667;SDS011;24099;47.102;15.440;2023-03-25T14:56:56;0.52;;;0.52;;
3667;SDS011;24099;47.102;15.440;2023-03-25T14:59:31;0.28;;;0.28;;
3667;SDS011;24099;47.102;15.440;2023-03-25T15:02:03;8.00;;;0.20;;
3667;SDS011;24099;47.102;15.440;2023-03-25T15:04:39;0.80;;;0.30;;
3667;SDS011;24099;47.102;15.440;2023-03-25T15:07:08;0.60;;;0.50;;
3667;SDS011;24099;47.102;15.440;2023-03-25T15:09:50;0.30;;;0.30;;
3667;SDS011;24099;47.102;15.440;2023-03-25T15:12:22;0.93;;;0.40;;
3667;SDS011;24099;47.102;15.440;2023-03-25T15:14:53;0.30;;;0.30;;
3667;SDS011;24099;47.102;15.440;2023-03-25T15:17:38;0.20;;;0.20;;
3667;SDS011;24099;47.102;15.440;2023-03-25T15:20:24;0.20;;;0.20;;
3667;SDS011;24099;47.102;15.440;2023-03-25T15:26:03;0.30;;;0.30;;
3667;SDS011;24099;47.102;15.440;2023-03-25T15:28:40;0.30;;;0.30;;
3667;SDS011;24099;47.102;15.440;2023-03-25T15:31:30;0.20;;;0.20;;
3667;SDS011;24099;47.102;15.440;2023-03-25T15:34:25;0.85;;;0.40;;
3667;SDS011;24099;47.102;15.440;2023-03-25T15:40:17;0.82;;;0.20;;
3667;SDS011;24099;47.102;15.440;2023-03-25T15:43:10;0.65;;;0.20;;
3667;SDS011;24099;47.102;15.440;2023-03-25T15:49:00;0.40;;;0.22;;
3667;SDS011;24099;47.102;15.440;2023-03-25T15:51:43;0.45;;;0.30;;
3667;SDS011;24099;47.102;15.440;2023-03-25T15:54:23;0.30;;;0.30;;
3667;SDS011;24099;47.102;15.440;2023-03-25T15:56:57;1.08;;;0.32;;